Yoshkar-Ola, Russia
Current Conditions -  °F | °C
As of 7:30 AM on Sunday 21 Dec 2014 (Local Time) from UWKS Reporting Station
Haze Haze  
Wind Chill: 25°   Ceiling: 300
Heat Index: 34°   Visibility: 2.7mi
Dew Point: 34°   Wind: 11mph
Humidity: 100%   Direction: 240°WSW
Pressure: 29.47"   Gusts: NA
Location:  56.64°N, 47.87°E
Report Text: UWKS 210430Z 24005MPS 4400 BR OVC003 01/01 Q0998 TEMPO 1500 BROVC004 RMK QBB110 QFE734 24650338
Loading
Personal Weather Stations






























Interactive Weather Map New forecast layout! Learn more

10-Day Weather Forecast

Advertisements
Track Severe Weather on mobile